Time;durP1;ratioP1;P1;durP2;ratioP2;P2;SDS_P1;SDS_P2;PMS_P1;PMS_P2;Temp;Humidity;BMP_temperature;BMP_pressure;BME280_temperature;BME280_humidity;BME280_pressure;Samples;Min_cycle;Max_cycle;Signal;HPM_P1;HPM_P2
2023/04/02 00:00:23;;;;;;;0.88;0.80;;;;;;;;;;490686;28;1211;-85
2023/04/02 00:01:00;;;;;;;1.00;0.70;;;;;;;;;;484892;28;1201;-85
2023/04/02 00:01:19;;;;;;;0.70;0.70;;;;;;;;;;487516;28;1144;-85
2023/04/02 00:02:06;;;;;;;0.60;0.60;;;;;;;;;;487855;28;1494;-86
2023/04/02 00:02:22;;;;;;;0.70;0.70;;;;;;;;;;485958;28;1316;-85
2023/04/02 00:04:07;;;;;;;1.05;0.85;;;;;;;;;;487999;29;1293;-85
2023/04/02 00:04:37;;;;;;;1.10;0.80;;;;;;;;;;488052;29;1277;-85
2023/04/02 00:05:33;;;;;;;1.10;0.80;;;;;;;;;;483523;29;1274;-85
2023/04/02 00:08:44;;;;;;;0.73;0.70;;;;;;;;;;483147;29;1266;-86
2023/04/02 00:09:41;;;;;;;1.95;0.90;;;;;;;;;;485160;29;1286;-86
2023/04/02 00:09:59;;;;;;;1.20;0.80;;;;;;;;;;489758;29;1321;-85
2023/04/02 00:12:06;;;;;;;;;;;;;;;;;;;;;
2023/04/02 00:12:28;;;;;;;0.90;0.70;;;;;;;;;;490352;29;855;-86
2023/04/02 00:13:11;;;;;;;0.82;0.65;;;;;;;;;;489126;29;1305;-86
2023/04/02 00:15:36;;;;;;;0.80;0.80;;;;;;;;;;495544;29;1316;-85
2023/04/02 00:16:13;;;;;;;1.40;0.80;;;;;;;;;;496073;28;1202;-83
2023/04/02 00:17:32;;;;;;;1.10;0.98;;;;;;;;;;509834;28;1959;-85
2023/04/02 00:17:54;;;;;;;0.90;0.80;;;;;;;;;;505381;28;1215;-85
2023/04/02 00:18:40;;;;;;;;;;;;;;;;;;;;;
2023/04/02 00:19:24;;;;;;;;;;;;;;;;;;;;;
2023/04/02 00:20:19;;;;;;;0.85;0.85;;;;;;;;;;498614;28;1320;-85
2023/04/02 00:21:51;;;;;;;1.35;1.00;;;;;;;;;;500758;29;1077;-86
2023/04/02 00:22:18;;;;;;;1.48;0.90;;;;;;;;;;494328;29;1215;-87
2023/04/02 00:22:58;;;;;;;;;;;;;;;;;;;;;
2023/04/02 00:24:36;;;;;;;1.88;0.90;;;;;;;;;;496544;28;1789;-86
2023/04/02 00:25:46;;;;;;;;;;;;;;;;;;;;;
2023/04/02 00:26:43;;;;;;;;;;;;;;;;;;;;;
2023/04/02 00:27:13;;;;;;;1.60;0.90;;;;;;;;;;478516;29;1346;-84
2023/04/02 00:27:39;;;;;;;1.35;0.93;;;;;;;;;;476346;29;1237;-84
2023/04/02 00:27:56;;;;;;;1.13;0.93;;;;;;;;;;475904;29;1221;-84
2023/04/02 00:28:30;;;;;;;1.08;0.90;;;;;;;;;;476571;29;1245;-84
2023/04/02 00:29:06;;;;;;;2.03;0.90;;;;;;;;;;478509;29;1247;-86
2023/04/02 00:29:38;;;;;;;1.35;0.90;;;;;;;;;;476562;29;1289;-85
2023/04/02 00:30:16;;;;;;;1.00;0.90;;;;;;;;;;477843;29;1451;-85
2023/04/02 00:30:54;;;;;;;1.02;0.90;;;;;;;;;;476424;29;1519;-84
2023/04/02 00:31:13;;;;;;;1.13;0.90;;;;;;;;;;475625;29;1295;-85
2023/04/02 00:31:49;;;;;;;;;;;;;;;;;;;;;
2023/04/02 00:32:11;;;;;;;1.05;0.80;;;;;;;;;;478606;29;1298;-85
2023/04/02 00:32:55;;;;;;;0.88;0.88;;;;;;;;;;499257;29;1258;-86
2023/04/02 00:33:56;;;;;;;1.15;0.88;;;;;;;;;;484479;29;1104;-85
2023/04/02 00:34:31;;;;;;;0.80;0.80;;;;;;;;;;489671;29;1250;-85
2023/04/02 00:34:47;;;;;;;1.10;0.90;;;;;;;;;;478118;29;1738;-84
2023/04/02 00:35:23;;;;;;;1.13;0.90;;;;;;;;;;479587;29;1237;-84
2023/04/02 00:35:41;;;;;;;0.80;0.80;;;;;;;;;;479158;29;1218;-84
2023/04/02 00:36:12;;;;;;;0.80;0.80;;;;;;;;;;474049;29;1299;-85
2023/04/02 00:36:40;;;;;;;2.10;1.00;;;;;;;;;;494243;29;1455;-84
2023/04/02 00:37:45;;;;;;;1.30;0.80;;;;;;;;;;504255;28;1924;-86
2023/04/02 00:38:11;;;;;;;1.20;0.82;;;;;;;;;;503902;29;1311;-86
2023/04/02 00:38:48;;;;;;;0.80;0.80;;;;;;;;;;508088;28;1115;-85
2023/04/02 00:39:29;;;;;;;1.30;1.00;;;;;;;;;;489907;29;1226;-85
2023/04/02 00:40:06;;;;;;;0.93;0.90;;;;;;;;;;485232;29;1376;-85
2023/04/02 00:40:55;;;;;;;;;;;;;;;;;;;;;
2023/04/02 00:41:29;;;;;;;1.73;1.10;;;;;;;;;;486012;29;1437;-85
2023/04/02 00:42:05;;;;;;;1.10;0.80;;;;;;;;;;482946;29;1336;-85
2023/04/02 00:42:21;;;;;;;1.00;0.90;;;;;;;;;;488197;29;1246;-85
2023/04/02 00:42:40;;;;;;;0.98;0.88;;;;;;;;;;484752;29;1162;-86
2023/04/02 00:43:15;;;;;;;0.90;0.90;;;;;;;;;;494914;29;1088;-84
2023/04/02 00:43:45;;;;;;;1.50;1.00;;;;;;;;;;489568;28;1330;-86
2023/04/02 00:44:38;;;;;;;1.00;0.90;;;;;;;;;;493142;28;1105;-84
2023/04/02 00:44:57;;;;;;;1.20;1.00;;;;;;;;;;490269;28;984;-85
2023/04/02 00:45:21;;;;;;;1.00;0.90;;;;;;;;;;485399;29;1366;-87
2023/04/02 00:45:40;;;;;;;0.90;0.80;;;;;;;;;;482880;29;1290;-86
2023/04/02 00:45:57;;;;;;;0.82;0.80;;;;;;;;;;480834;29;1394;-85
2023/04/02 00:47:02;;;;;;;1.73;0.90;;;;;;;;;;481502;29;1330;-85
2023/04/02 00:47:06;;;;;;;1.92;0.90;;;;;;;;;;484492;29;1202;-85
2023/04/02 00:47:42;;;;;;;1.10;1.00;;;;;;;;;;486607;29;1306;-84
2023/04/02 00:48:19;;;;;;;1.13;0.98;;;;;;;;;;505278;28;1129;-84
2023/04/02 00:48:40;;;;;;;0.90;0.90;;;;;;;;;;497156;29;1145;-86
2023/04/02 00:49:09;;;;;;;0.82;0.82;;;;;;;;;;501225;29;1245;-84
2023/04/02 00:51:20;;;;;;;0.93;0.82;;;;;;;;;;480559;29;1146;-84
2023/04/02 00:51:57;;;;;;;1.40;1.00;;;;;;;;;;479596;29;1260;-84
2023/04/02 00:52:27;;;;;;;1.20;0.90;;;;;;;;;;492679;29;1398;-86
2023/04/02 00:54:20;;;;;;;1.20;0.90;;;;;;;;;;507857;28;1019;-84
2023/04/02 00:56:24;;;;;;;1.20;1.10;;;;;;;;;;485322;29;1116;-85
2023/04/02 00:57:00;;;;;;;1.45;1.17;;;;;;;;;;493356;29;1432;-84
2023/04/02 00:57:33;;;;;;;1.30;1.02;;;;;;;;;;489990;29;1344;-85
2023/04/02 00:57:56;;;;;;;1.15;1.00;;;;;;;;;;499976;29;1479;-84
2023/04/02 01:01:42;;;;;;;1.75;1.20;;;;;;;;;;485924;30;2104;-85
2023/04/02 01:02:21;;;;;;;1.48;1.00;;;;;;;;;;482133;30;1185;-85
2023/04/02 01:03:11;;;;;;;;;;;;;;;;;;;;;
2023/04/02 01:03:36;;;;;;;1.23;1.10;;;;;;;;;;482854;30;1264;-85
2023/04/02 01:04:13;;;;;;;1.50;1.10;;;;;;;;;;479933;29;1342;-84
2023/04/02 01:04:50;;;;;;;1.10;1.00;;;;;;;;;;485617;29;1209;-86
2023/04/02 01:06:19;;;;;;;;;;;;;;;;;;;;;
2023/04/02 01:06:42;;;;;;;1.63;1.08;;;;;;;;;;490440;29;1158;-84
2023/04/02 01:07:06;;;;;;;1.45;0.93;;;;;;;;;;489250;29;1360;-84
2023/04/02 01:08:48;;;;;;;1.00;0.90;;;;;;;;;;491235;29;1493;-84
2023/04/02 01:09:37;;;;;;;1.42;0.90;;;;;;;;;;492865;29;1292;-86
2023/04/02 01:10:10;;;;;;;0.98;0.85;;;;;;;;;;494650;29;1190;-85
2023/04/02 01:10:37;;;;;;;0.90;0.90;;;;;;;;;;497050;29;1351;-85
2023/04/02 01:11:20;;;;;;;0.77;0.70;;;;;;;;;;496436;29;1281;-86
2023/04/02 01:12:26;;;;;;;;;;;;;;;;;;;;;
2023/04/02 01:13:43;;;;;;;1.00;0.80;;;;;;;;;;486824;29;1384;-84
2023/04/02 01:14:36;;;;;;;;;;;;;;;;;;;;;
2023/04/02 01:15:09;;;;;;;1.10;0.90;;;;;;;;;;489919;29;934;-84
2023/04/02 01:17:10;;;;;;;1.25;0.80;;;;;;;;;;487358;29;1265;-86
2023/04/02 01:18:01;;;;;;;0.85;0.85;;;;;;;;;;491668;29;1149;-84
2023/04/02 01:18:52;;;;;;;1.70;1.00;;;;;;;;;;490656;29;1215;-83
2023/04/02 01:19:32;;;;;;;1.20;0.88;;;;;;;;;;488989;29;1301;-85
2023/04/02 01:20:27;;;;;;;1.02;0.90;;;;;;;;;;491926;29;1322;-84
2023/04/02 01:21:00;;;;;;;1.20;0.90;;;;;;;;;;499199;29;1194;-84
2023/04/02 01:21:44;;;;;;;0.90;0.80;;;;;;;;;;499556;29;1413;-85
2023/04/02 01:23:21;;;;;;;1.00;0.82;;;;;;;;;;480751;29;885;-85
2023/04/02 01:24:07;;;;;;;1.10;1.00;;;;;;;;;;483744;29;1133;-85
2023/04/02 01:24:55;;;;;;;;;;;;;;;;;;;;;
2023/04/02 01:25:21;;;;;;;1.20;1.00;;;;;;;;;;484470;29;1129;-85
2023/04/02 01:26:08;;;;;;;1.17;1.00;;;;;;;;;;491332;29;1185;-85
2023/04/02 01:26:44;;;;;;;1.20;0.90;;;;;;;;;;478440;29;1149;-85
2023/04/02 01:27:08;;;;;;;1.20;0.85;;;;;;;;;;477724;29;1351;-86
2023/04/02 01:27:58;;;;;;;0.95;0.95;;;;;;;;;;485990;29;1203;-85
2023/04/02 01:30:11;;;;;;;0.65;0.65;;;;;;;;;;477840;29;1214;-85
2023/04/02 01:30:41;;;;;;;0.73;0.70;;;;;;;;;;475461;29;1372;-84
2023/04/02 01:31:12;;;;;;;1.10;0.88;;;;;;;;;;480066;29;1370;-86
2023/04/02 01:31:35;;;;;;;1.50;0.82;;;;;;;;;;482488;29;1236;-86
2023/04/02 01:32:01;;;;;;;1.55;0.90;;;;;;;;;;483190;29;1240;-85
2023/04/02 01:32:40;;;;;;;1.08;0.95;;;;;;;;;;485197;29;1232;-85
2023/04/02 01:33:27;;;;;;;1.67;0.80;;;;;;;;;;479207;29;1293;-85
2023/04/02 01:33:49;;;;;;;1.48;0.90;;;;;;;;;;487938;29;1139;-85
2023/04/02 01:34:29;;;;;;;0.70;0.70;;;;;;;;;;484684;29;1362;-85
2023/04/02 01:35:16;;;;;;;1.08;0.93;;;;;;;;;;484299;29;1361;-86
2023/04/02 01:35:58;;;;;;;1.30;0.80;;;;;;;;;;480421;29;1719;-86
2023/04/02 01:36:26;;;;;;;1.25;0.73;;;;;;;;;;480845;29;1366;-86
2023/04/02 01:37:00;;;;;;;0.95;0.80;;;;;;;;;;484605;29;1443;-86
2023/04/02 01:38:50;;;;;;;1.40;0.80;;;;;;;;;;485321;29;865;-85
2023/04/02 01:39:24;;;;;;;0.77;0.73;;;;;;;;;;480983;29;1364;-85
2023/04/02 01:39:49;;;;;;;0.80;0.80;;;;;;;;;;483302;29;1154;-85
2023/04/02 01:40:26;;;;;;;0.70;0.70;;;;;;;;;;486796;29;1415;-86
2023/04/02 01:41:58;;;;;;;0.77;0.77;;;;;;;;;;482314;29;1072;-86
2023/04/02 01:42:44;;;;;;;1.00;0.90;;;;;;;;;;486397;29;1470;-85
2023/04/02 01:43:31;;;;;;;1.30;0.80;;;;;;;;;;490767;29;1300;-86
2023/04/02 01:44:11;;;;;;;0.60;0.60;;;;;;;;;;494911;29;1183;-85
2023/04/02 01:45:33;;;;;;;1.15;0.90;;;;;;;;;;474867;29;1143;-85
2023/04/02 01:45:46;;;;;;;0.80;0.80;;;;;;;;;;484561;29;1126;-85
2023/04/02 01:45:58;;;;;;;0.85;0.85;;;;;;;;;;478904;29;1445;-85
2023/04/02 01:46:30;;;;;;;0.70;0.70;;;;;;;;;;477357;29;1402;-85
2023/04/02 01:46:47;;;;;;;1.23;1.00;;;;;;;;;;483470;29;1283;-85
2023/04/02 01:47:12;;;;;;;1.05;0.88;;;;;;;;;;484687;29;1447;-84
2023/04/02 01:47:44;;;;;;;0.68;0.63;;;;;;;;;;482509;29;1333;-85
2023/04/02 01:48:20;;;;;;;0.90;0.80;;;;;;;;;;481360;29;1350;-84
2023/04/02 01:48:46;;;;;;;1.17;0.70;;;;;;;;;;492559;29;1548;-85
2023/04/02 01:49:29;;;;;;;1.48;0.80;;;;;;;;;;496162;29;1340;-86
2023/04/02 01:49:54;;;;;;;0.73;0.65;;;;;;;;;;490077;29;1554;-85
2023/04/02 01:51:42;;;;;;;1.05;0.80;;;;;;;;;;484413;29;1324;-85
2023/04/02 01:52:06;;;;;;;0.80;0.80;;;;;;;;;;485351;29;1780;-85
2023/04/02 01:55:52;;;;;;;0.70;0.70;;;;;;;;;;497623;29;1168;-86
2023/04/02 01:56:17;;;;;;;1.05;0.80;;;;;;;;;;491085;29;1291;-85
2023/04/02 01:56:34;;;;;;;1.00;0.80;;;;;;;;;;479204;29;1362;-85
2023/04/02 01:56:56;;;;;;;0.93;0.80;;;;;;;;;;483231;29;1304;-85
2023/04/02 01:57:12;;;;;;;0.80;0.80;;;;;;;;;;492682;29;1466;-85
2023/04/02 01:57:29;;;;;;;0.80;0.80;;;;;;;;;;489262;29;1322;-85
2023/04/02 01:57:48;;;;;;;0.80;0.80;;;;;;;;;;503389;29;1934;-85
2023/04/02 01:58:14;;;;;;;1.60;0.90;;;;;;;;;;499858;29;1839;-86
2023/04/02 01:58:33;;;;;;;1.02;0.82;;;;;;;;;;487233;29;1237;-85
2023/04/02 01:59:25;;;;;;;0.88;0.85;;;;;;;;;;488740;29;1273;-84
2023/04/02 02:00:08;;;;;;;1.00;0.90;;;;;;;;;;482717;29;1188;-85
2023/04/02 02:00:38;;;;;;;1.42;0.80;;;;;;;;;;481150;29;1192;-85
2023/04/02 02:01:55;;;;;;;;;;;;;;;;;;;;;
2023/04/02 02:03:20;;;;;;;0.70;0.68;;;;;;;;;;482082;29;1261;-85
2023/04/02 02:04:11;;;;;;;;;;;;;;;;;;;;;
2023/04/02 02:04:44;;;;;;;1.13;0.70;;;;;;;;;;497267;29;1880;-85
2023/04/02 02:06:15;;;;;;;0.70;0.70;;;;;;;;;;491725;29;1138;-86
2023/04/02 02:06:23;;;;;;;0.70;0.70;;;;;;;;;;491385;28;1496;-84
2023/04/02 02:06:34;;;;;;;0.70;0.65;;;;;;;;;;489487;29;1270;-84
2023/04/02 02:07:01;;;;;;;0.70;0.70;;;;;;;;;;496048;29;1081;-86
2023/04/02 02:07:41;;;;;;;0.63;0.60;;;;;;;;;;493468;29;1185;-86
2023/04/02 02:08:00;;;;;;;0.80;0.80;;;;;;;;;;487359;29;1170;-85
2023/04/02 02:08:55;;;;;;;0.70;0.70;;;;;;;;;;485890;29;1251;-86
2023/04/02 02:09:34;;;;;;;;;;;;;;;;;;;;;
2023/04/02 02:09:59;;;;;;;1.05;0.90;;;;;;;;;;482463;29;1141;-84
2023/04/02 02:10:41;;;;;;;0.85;0.80;;;;;;;;;;479863;29;1241;-85
2023/04/02 02:11:00;;;;;;;1.05;0.95;;;;;;;;;;485797;29;1167;-84
2023/04/02 02:12:17;;;;;;;0.95;0.88;;;;;;;;;;493056;29;886;-84
2023/04/02 02:12:46;;;;;;;0.90;0.90;;;;;;;;;;483806;29;1173;-84
2023/04/02 02:13:07;;;;;;;1.30;0.70;;;;;;;;;;492901;29;1244;-84
2023/04/02 02:13:45;;;;;;;0.90;0.80;;;;;;;;;;501548;29;1251;-84
2023/04/02 02:14:16;;;;;;;1.45;0.80;;;;;;;;;;502612;29;1363;-86
2023/04/02 02:14:45;;;;;;;0.80;0.80;;;;;;;;;;502848;29;1508;-85
2023/04/02 02:15:05;;;;;;;1.40;1.00;;;;;;;;;;501512;29;1267;-85
2023/04/02 02:15:39;;;;;;;1.35;0.93;;;;;;;;;;497511;29;937;-84
2023/04/02 02:16:03;;;;;;;1.25;1.10;;;;;;;;;;490058;29;1419;-84
2023/04/02 02:16:22;;;;;;;0.88;0.88;;;;;;;;;;482501;29;1181;-84
2023/04/02 02:18:12;;;;;;;1.90;1.13;;;;;;;;;;483439;29;1209;-84
2023/04/02 02:18:31;;;;;;;1.20;1.10;;;;;;;;;;484359;29;1396;-84
2023/04/02 02:19:03;;;;;;;1.40;1.10;;;;;;;;;;485278;29;1285;-84
2023/04/02 02:20:56;;;;;;;;;;;;;;;;;;;;;
2023/04/02 02:21:47;;;;;;;2.30;1.10;;;;;;;;;;484722;29;1176;-84
2023/04/02 02:22:37;;;;;;;1.10;1.00;;;;;;;;;;488392;29;1274;-84
2023/04/02 02:23:30;;;;;;;;;;;;;;;;;;;;;
2023/04/02 02:26:58;;;;;;;1.38;1.13;;;;;;;;;;486313;29;1271;-86
2023/04/02 02:28:30;;;;;;;1.65;1.20;;;;;;;;;;478485;29;1191;-83
2023/04/02 02:29:06;;;;;;;1.80;1.48;;;;;;;;;;477441;29;1294;-84
2023/04/02 02:30:52;;;;;;;1.75;1.50;;;;;;;;;;475793;30;1380;-84
2023/04/02 02:31:44;;;;;;;1.77;1.60;;;;;;;;;;479018;30;1262;-83
2023/04/02 02:32:00;;;;;;;1.85;1.55;;;;;;;;;;478884;29;1126;-85
2023/04/02 02:32:32;;;;;;;1.73;1.60;;;;;;;;;;472202;29;1274;-85
2023/04/02 02:34:43;;;;;;;2.20;1.52;;;;;;;;;;478562;29;1170;-84
2023/04/02 02:36:28;;;;;;;1.60;1.50;;;;;;;;;;478151;29;1353;-84
2023/04/02 02:37:48;;;;;;;2.60;1.80;;;;;;;;;;479223;29;1993;-83
2023/04/02 02:38:22;;;;;;;2.45;1.95;;;;;;;;;;476153;29;1210;-83
2023/04/02 02:39:06;;;;;;;1.80;1.70;;;;;;;;;;468525;29;1354;-84
2023/04/02 02:39:42;;;;;;;2.05;1.48;;;;;;;;;;475534;29;1334;-84
2023/04/02 02:40:03;;;;;;;1.85;1.70;;;;;;;;;;473686;30;1271;-85
2023/04/02 02:40:42;;;;;;;1.85;1.75;;;;;;;;;;477649;30;1157;-84
2023/04/02 02:41:41;;;;;;;2.25;1.80;;;;;;;;;;468572;30;1342;-84
2023/04/02 02:43:07;;;;;;;2.33;2.13;;;;;;;;;;478266;29;1486;-84
2023/04/02 02:43:57;;;;;;;2.42;2.22;;;;;;;;;;484389;29;1217;-84
2023/04/02 02:45:55;;;;;;;3.17;2.50;;;;;;;;;;476587;29;1311;-86
2023/04/02 02:46:17;;;;;;;2.50;2.30;;;;;;;;;;470674;29;1518;-85
2023/04/02 02:46:56;;;;;;;2.50;2.30;;;;;;;;;;479398;29;1433;-84
2023/04/02 02:47:29;;;;;;;2.95;2.47;;;;;;;;;;479487;29;1230;-84
2023/04/02 02:49:09;;;;;;;2.72;2.53;;;;;;;;;;479278;29;1278;-84
2023/04/02 02:49:31;;;;;;;2.70;2.50;;;;;;;;;;471726;29;1324;-84
2023/04/02 02:51:06;;;;;;;3.00;2.70;;;;;;;;;;466443;30;1191;-84
2023/04/02 02:51:46;;;;;;;2.97;2.67;;;;;;;;;;468891;30;1359;-84
2023/04/02 02:52:58;;;;;;;3.25;2.80;;;;;;;;;;468942;29;946;-84
2023/04/02 02:54:48;;;;;;;3.00;2.80;;;;;;;;;;475352;30;1388;-84
2023/04/02 02:55:33;;;;;;;3.47;2.70;;;;;;;;;;471675;30;1294;-84
2023/04/02 02:55:56;;;;;;;2.70;2.50;;;;;;;;;;478591;29;1460;-84
2023/04/02 02:56:22;;;;;;;2.55;2.35;;;;;;;;;;475934;29;1310;-86
2023/04/02 02:58:12;;;;;;;1.98;1.88;;;;;;;;;;477244;30;1236;-84
2023/04/02 02:58:39;;;;;;;2.30;2.10;;;;;;;;;;486786;29;1272;-84
2023/04/02 02:58:59;;;;;;;2.30;1.83;;;;;;;;;;472650;29;1212;-85
2023/04/02 02:59:36;;;;;;;1.80;1.70;;;;;;;;;;479062;29;1462;-84
2023/04/02 03:00:23;;;;;;;2.05;1.88;;;;;;;;;;482022;29;1198;-84
2023/04/02 03:00:59;;;;;;;2.30;2.10;;;;;;;;;;472090;29;1181;-84
2023/04/02 03:01:38;;;;;;;2.50;2.30;;;;;;;;;;476498;29;1334;-84
2023/04/02 03:02:17;;;;;;;2.60;2.30;;;;;;;;;;486121;29;1149;-84
2023/04/02 03:02:35;;;;;;;2.88;2.40;;;;;;;;;;475549;29;1314;-84
2023/04/02 03:03:05;;;;;;;2.70;2.50;;;;;;;;;;474523;29;1385;-84
2023/04/02 03:04:21;;;;;;;2.80;2.60;;;;;;;;;;475912;29;1315;-84
2023/04/02 03:05:09;;;;;;;2.72;2.53;;;;;;;;;;472753;29;1317;-84
2023/04/02 03:05:35;;;;;;;3.08;2.88;;;;;;;;;;474297;29;1473;-83
2023/04/02 03:06:24;;;;;;;2.90;2.70;;;;;;;;;;473685;29;1329;-84
2023/04/02 03:06:44;;;;;;;2.42;2.22;;;;;;;;;;469570;29;1378;-85
2023/04/02 03:07:10;;;;;;;2.38;2.20;;;;;;;;;;477254;29;1222;-85
2023/04/02 03:07:52;;;;;;;2.60;2.40;;;;;;;;;;486531;29;1349;-85
2023/04/02 03:08:24;;;;;;;2.33;2.13;;;;;;;;;;479735;29;1226;-84
2023/04/02 03:08:48;;;;;;;2.10;2.00;;;;;;;;;;480826;29;1389;-85
2023/04/02 03:09:32;;;;;;;2.17;2.08;;;;;;;;;;484931;29;1496;-84
2023/04/02 03:13:01;;;;;;;2.30;2.10;;;;;;;;;;484112;29;1316;-85
2023/04/02 03:13:26;;;;;;;2.78;2.50;;;;;;;;;;477594;29;1198;-86
2023/04/02 03:13:47;;;;;;;3.00;2.70;;;;;;;;;;487226;29;1216;-85
2023/04/02 03:15:27;;;;;;;2.75;2.42;;;;;;;;;;487796;29;1264;-84
2023/04/02 03:16:12;;;;;;;2.72;2.53;;;;;;;;;;481295;29;1086;-84
2023/04/02 03:16:37;;;;;;;3.25;2.95;;;;;;;;;;478778;29;1270;-83
2023/04/02 03:17:06;;;;;;;2.90;2.70;;;;;;;;;;483648;29;996;-84
2023/04/02 03:17:59;;;;;;;;;;;;;;;;;;;;;
2023/04/02 03:18:57;;;;;;;3.10;2.80;;;;;;;;;;482994;29;1422;-85
2023/04/02 03:19:28;;;;;;;2.85;2.65;;;;;;;;;;481749;29;1327;-85
2023/04/02 03:20:00;;;;;;;2.72;2.53;;;;;;;;;;483722;29;1442;-84
2023/04/02 03:21:47;;;;;;;3.03;2.83;;;;;;;;;;485942;29;1666;-85
2023/04/02 03:22:24;;;;;;;2.88;2.67;;;;;;;;;;480406;29;1353;-85
2023/04/02 03:23:01;;;;;;;3.20;2.88;;;;;;;;;;480678;29;1414;-84
2023/04/02 03:23:27;;;;;;;2.90;2.70;;;;;;;;;;480213;29;1106;-85
2023/04/02 03:24:09;;;;;;;2.83;2.63;;;;;;;;;;484219;29;1137;-84
2023/04/02 03:25:45;;;;;;;2.60;2.40;;;;;;;;;;490047;29;1182;-84
2023/04/02 03:26:13;;;;;;;3.00;2.80;;;;;;;;;;476844;29;1115;-85
2023/04/02 03:27:07;;;;;;;2.83;2.63;;;;;;;;;;475108;29;1240;-85
2023/04/02 03:28:25;;;;;;;2.70;2.50;;;;;;;;;;481217;29;1314;-85
2023/04/02 03:29:40;;;;;;;3.03;2.75;;;;;;;;;;477093;29;1327;-85
2023/04/02 03:30:39;;;;;;;2.70;2.50;;;;;;;;;;479527;29;1276;-85
2023/04/02 03:31:22;;;;;;;3.08;2.83;;;;;;;;;;482763;29;1191;-85
2023/04/02 03:31:56;;;;;;;2.75;2.55;;;;;;;;;;480592;29;1200;-85
2023/04/02 03:32:42;;;;;;;3.58;3.28;;;;;;;;;;488174;29;1587;-85
2023/04/02 03:33:46;;;;;;;2.88;2.58;;;;;;;;;;493645;29;1375;-85
2023/04/02 03:34:32;;;;;;;3.20;2.83;;;;;;;;;;481177;29;1405;-85
2023/04/02 03:35:25;;;;;;;3.15;2.85;;;;;;;;;;485656;29;1358;-85
2023/04/02 03:37:14;;;;;;;2.88;2.67;;;;;;;;;;486919;29;1105;-85
2023/04/02 03:39:25;;;;;;;3.38;3.08;;;;;;;;;;489612;29;1337;-85
2023/04/02 03:41:01;;;;;;;2.60;2.40;;;;;;;;;;489407;29;1474;-85
2023/04/02 03:41:23;;;;;;;3.10;2.80;;;;;;;;;;490787;29;1230;-85
2023/04/02 03:42:20;;;;;;;2.90;2.70;;;;;;;;;;494316;29;1280;-85
2023/04/02 03:42:49;;;;;;;2.90;2.70;;;;;;;;;;490885;29;1302;-85
2023/04/02 03:43:16;;;;;;;2.70;2.50;;;;;;;;;;483801;29;1134;-86
2023/04/02 03:43:52;;;;;;;3.00;2.80;;;;;;;;;;485224;29;1282;-85
2023/04/02 03:44:49;;;;;;;3.30;3.00;;;;;;;;;;483815;29;1307;-84
2023/04/02 03:45:52;;;;;;;;;;;;;;;;;;;;;
2023/04/02 03:46:36;;;;;;;3.20;2.90;;;;;;;;;;469807;29;1093;-85
2023/04/02 03:47:51;;;;;;;3.03;2.83;;;;;;;;;;468499;29;974;-84
2023/04/02 03:48:18;;;;;;;2.90;2.70;;;;;;;;;;470734;30;1205;-85
2023/04/02 03:48:59;;;;;;;3.30;3.00;;;;;;;;;;480776;29;1213;-85
2023/04/02 03:49:39;;;;;;;3.45;3.15;;;;;;;;;;482913;29;1276;-86
2023/04/02 03:50:10;;;;;;;3.28;2.97;;;;;;;;;;481127;29;1491;-85
2023/04/02 03:50:46;;;;;;;3.30;3.00;;;;;;;;;;487254;29;1209;-86
2023/04/02 03:51:41;;;;;;;3.17;2.90;;;;;;;;;;482250;29;1498;-85
2023/04/02 03:52:21;;;;;;;2.70;2.50;;;;;;;;;;487894;29;1437;-84
2023/04/02 03:53:37;;;;;;;2.97;2.78;;;;;;;;;;484786;30;1282;-85
2023/04/02 03:54:14;;;;;;;3.50;3.17;;;;;;;;;;480213;29;1388;-85
2023/04/02 03:54:31;;;;;;;3.00;2.80;;;;;;;;;;483401;29;1229;-85
2023/04/02 03:55:17;;;;;;;3.00;2.80;;;;;;;;;;485997;29;1181;-86
2023/04/02 03:56:32;;;;;;;2.88;2.58;;;;;;;;;;484149;29;1211;-85
2023/04/02 03:57:23;;;;;;;2.90;2.70;;;;;;;;;;486427;29;1477;-84
2023/04/02 03:57:59;;;;;;;3.00;2.80;;;;;;;;;;493465;29;1248;-85
2023/04/02 03:58:18;;;;;;;2.70;2.50;;;;;;;;;;489211;29;1241;-85
2023/04/02 03:59:02;;;;;;;2.83;2.63;;;;;;;;;;491181;29;1281;-83
2023/04/02 04:00:23;;;;;;;2.60;2.40;;;;;;;;;;493544;29;1263;-84
2023/04/02 04:01:33;;;;;;;3.45;2.33;;;;;;;;;;485576;30;1112;-85
2023/04/02 04:02:08;;;;;;;4.28;2.67;;;;;;;;;;487510;29;1248;-85
2023/04/02 04:02:23;;;;;;;2.92;2.45;;;;;;;;;;486805;29;1518;-85
2023/04/02 04:03:07;;;;;;;2.67;2.47;;;;;;;;;;486117;29;1137;-84
2023/04/02 04:03:49;;;;;;;2.60;2.40;;;;;;;;;;487085;29;1213;-85
2023/04/02 04:04:46;;;;;;;2.40;2.20;;;;;;;;;;483059;30;1663;-84
2023/04/02 04:05:03;;;;;;;2.50;2.30;;;;;;;;;;483542;30;1615;-84
2023/04/02 04:05:32;;;;;;;2.60;2.40;;;;;;;;;;480609;30;1220;-85
2023/04/02 04:08:30;;;;;;;2.50;2.30;;;;;;;;;;482447;30;1173;-84
2023/04/02 04:09:08;;;;;;;;;;;;;;;;;;;;;
2023/04/02 04:09:43;;;;;;;2.30;2.10;;;;;;;;;;477718;30;1298;-85
2023/04/02 04:10:29;;;;;;;2.20;2.00;;;;;;;;;;484699;30;1451;-84
2023/04/02 04:11:18;;;;;;;2.08;1.98;;;;;;;;;;486555;30;1275;-85
2023/04/02 04:13:09;;;;;;;2.97;2.22;;;;;;;;;;483480;30;1358;-86
2023/04/02 04:14:52;;;;;;;1.95;1.85;;;;;;;;;;481878;30;1497;-83
2023/04/02 04:16:32;;;;;;;1.95;1.75;;;;;;;;;;480200;30;930;-85
2023/04/02 04:16:52;;;;;;;1.70;1.60;;;;;;;;;;479361;30;1364;-84
2023/04/02 04:17:15;;;;;;;1.70;1.60;;;;;;;;;;478927;30;1531;-84
2023/04/02 04:17:50;;;;;;;2.00;1.70;;;;;;;;;;484465;30;1321;-86
2023/04/02 04:18:27;;;;;;;1.75;1.60;;;;;;;;;;482625;29;1273;-85
2023/04/02 04:18:46;;;;;;;2.33;1.80;;;;;;;;;;484119;29;1277;-86
2023/04/02 04:19:28;;;;;;;2.08;1.80;;;;;;;;;;484886;30;1187;-85
2023/04/02 04:20:10;;;;;;;2.00;1.80;;;;;;;;;;489135;29;1237;-85
2023/04/02 04:21:05;;;;;;;2.25;1.70;;;;;;;;;;483772;29;1335;-85
2023/04/02 04:21:29;;;;;;;1.98;1.83;;;;;;;;;;481961;30;1458;-85
2023/04/02 04:21:47;;;;;;;2.30;2.10;;;;;;;;;;483368;29;1295;-85
2023/04/02 04:22:13;;;;;;;2.30;2.10;;;;;;;;;;486009;30;1175;-86
2023/04/02 04:22:37;;;;;;;2.70;1.90;;;;;;;;;;483706;30;1240;-86
2023/04/02 04:22:58;;;;;;;2.08;1.90;;;;;;;;;;484593;30;1428;-85
2023/04/02 04:24:29;;;;;;;2.70;2.33;;;;;;;;;;482580;30;1234;-86
2023/04/02 04:25:49;;;;;;;2.75;2.35;;;;;;;;;;488980;29;1376;-86
2023/04/02 04:31:09;;;;;;;2.45;2.10;;;;;;;;;;484536;30;1089;-86
2023/04/02 04:31:29;;;;;;;2.50;2.30;;;;;;;;;;485450;29;1133;-86
2023/04/02 04:31:45;;;;;;;2.55;2.20;;;;;;;;;;491912;29;1109;-85
2023/04/02 04:32:16;;;;;;;2.83;2.30;;;;;;;;;;492171;29;1333;-85
2023/04/02 04:32:34;;;;;;;2.72;2.50;;;;;;;;;;492419;29;1157;-83
2023/04/02 04:33:02;;;;;;;2.70;2.50;;;;;;;;;;492148;29;1469;-85
2023/04/02 04:33:21;;;;;;;2.65;2.45;;;;;;;;;;490939;29;1341;-85
2023/04/02 04:33:42;;;;;;;2.83;2.45;;;;;;;;;;491186;30;1425;-86
2023/04/02 04:34:02;;;;;;;2.90;2.35;;;;;;;;;;491620;29;1322;-86
2023/04/02 04:34:21;;;;;;;2.78;2.42;;;;;;;;;;492184;29;1204;-85
2023/04/02 04:34:45;;;;;;;2.85;2.40;;;;;;;;;;495352;29;1122;-86
2023/04/02 04:35:14;;;;;;;3.00;2.65;;;;;;;;;;497075;29;1351;-84
2023/04/02 04:35:31;;;;;;;3.28;2.50;;;;;;;;;;496265;29;1267;-86
2023/04/02 04:36:07;;;;;;;3.03;2.40;;;;;;;;;;494515;29;1274;-86
2023/04/02 04:36:31;;;;;;;2.60;2.40;;;;;;;;;;470289;29;1460;-85
2023/04/02 04:36:53;;;;;;;2.58;2.38;;;;;;;;;;473543;29;1355;-86
2023/04/02 04:37:20;;;;;;;2.58;2.38;;;;;;;;;;481164;29;1253;-85
2023/04/02 04:37:40;;;;;;;2.38;2.17;;;;;;;;;;479563;29;1267;-85
2023/04/02 04:37:58;;;;;;;2.20;2.00;;;;;;;;;;484131;29;1943;-85
2023/04/02 04:38:21;;;;;;;3.08;2.45;;;;;;;;;;484642;29;1260;-85
2023/04/02 04:38:43;;;;;;;3.05;2.40;;;;;;;;;;489058;29;1271;-85
2023/04/02 04:39:06;;;;;;;3.22;2.40;;;;;;;;;;493145;29;1297;-85
2023/04/02 04:41:23;;;;;;;2.58;2.38;;;;;;;;;;498235;29;958;-85
2023/04/02 04:41:23;;;;;;;3.53;2.40;;;;;;;;;;496539;29;1181;-85
2023/04/02 04:41:45;;;;;;;2.65;2.45;;;;;;;;;;497571;29;1611;-85
2023/04/02 04:42:11;;;;;;;2.60;2.40;;;;;;;;;;497079;29;1314;-86
2023/04/02 04:42:47;;;;;;;3.03;2.72;;;;;;;;;;485995;29;1160;-85
2023/04/02 04:43:24;;;;;;;3.58;2.58;;;;;;;;;;486073;29;1135;-85
2023/04/02 04:43:47;;;;;;;2.70;2.50;;;;;;;;;;491561;29;1096;-84
2023/04/02 04:44:30;;;;;;;3.03;2.60;;;;;;;;;;488750;29;1345;-84
2023/04/02 04:44:52;;;;;;;3.00;2.70;;;;;;;;;;487025;29;1142;-85
2023/04/02 04:45:26;;;;;;;;;;;;;;;;;;;;;
2023/04/02 04:47:13;;;;;;;2.78;2.58;;;;;;;;;;491386;29;1188;-84
2023/04/02 04:48:08;;;;;;;;;;;;;;;;;;;;;
2023/04/02 04:49:52;;;;;;;2.38;2.17;;;;;;;;;;502699;29;1248;-85
2023/04/02 04:50:44;;;;;;;3.10;2.90;;;;;;;;;;500145;29;1298;-85
2023/04/02 04:52:01;;;;;;;2.60;2.40;;;;;;;;;;494947;29;1333;-86
2023/04/02 04:52:16;;;;;;;2.80;2.50;;;;;;;;;;498953;29;1139;-86
2023/04/02 04:52:34;;;;;;;3.00;2.70;;;;;;;;;;498375;29;1232;-85
2023/04/02 04:54:21;;;;;;;;;;;;;;;;;;;;;
2023/04/02 04:55:09;;;;;;;;;;;;;;;;;;;;;
2023/04/02 04:55:54;;;;;;;;;;;;;;;;;;;;;
2023/04/02 04:57:00;;;;;;;2.67;2.42;;;;;;;;;;499957;29;1491;-82
2023/04/02 04:57:35;;;;;;;2.33;2.13;;;;;;;;;;500940;29;1326;-83
2023/04/02 04:57:55;;;;;;;2.40;2.20;;;;;;;;;;505155;29;2088;-82
2023/04/02 04:58:20;;;;;;;2.70;2.50;;;;;;;;;;505776;29;1272;-82
2023/04/02 04:58:40;;;;;;;2.50;2.30;;;;;;;;;;505316;29;1415;-82
2023/04/02 04:59:14;;;;;;;2.50;2.30;;;;;;;;;;506091;29;1442;-83
2023/04/02 04:59:38;;;;;;;2.50;2.30;;;;;;;;;;505613;29;1305;-82
2023/04/02 04:59:58;;;;;;;2.90;2.40;;;;;;;;;;507761;29;1411;-82
2023/04/02 05:00:23;;;;;;;2.90;2.30;;;;;;;;;;506811;29;1005;-82
2023/04/02 05:00:39;;;;;;;2.45;2.20;;;;;;;;;;504236;29;1262;-82
2023/04/02 05:00:54;;;;;;;2.40;2.10;;;;;;;;;;505395;29;1234;-83
2023/04/02 05:01:18;;;;;;;2.50;2.20;;;;;;;;;;489782;29;1232;-82